Time;durP1;ratioP1;P1;durP2;ratioP2;P2;SDS_P1;SDS_P2;PMS_P1;PMS_P2;Temp;Humidity;BMP_temperature;BMP_pressure;BME280_temperature;BME280_humidity;BME280_pressure;Samples;Min_cycle;Max_cycle;Signal;HPM_P1;HPM_P2
2024/01/08 00:01:36;;;;;;;;;;;0.30;99.90;;;;;;5058209;28;20394;-70
2024/01/08 00:04:04;;;;;;;;;;;0.20;99.90;;;;;;5033217;28;19925;-70
2024/01/08 00:06:34;;;;;;;;;;;0.30;99.90;;;;;;5051414;28;20020;-70
2024/01/08 00:09:04;;;;;;;;;;;0.30;99.90;;;;;;5033228;28;19920;-70
2024/01/08 00:11:32;;;;;;;;;;;0.30;99.90;;;;;;5050538;28;20280;-70
2024/01/08 00:14:00;;;;;;;;;;;0.20;99.90;;;;;;5033119;28;20399;-72
2024/01/08 00:16:28;;;;;;;;;;;0.30;99.90;;;;;;5051010;28;19933;-70
2024/01/08 00:18:56;;;;;;;;;;;0.20;99.90;;;;;;5041595;28;19921;-70
2024/01/08 00:21:24;;;;;;;;;;;0.20;99.90;;;;;;5032592;28;19932;-70
2024/01/08 00:23:53;;;;;;;;;;;0.20;99.90;;;;;;5051240;28;19920;-71
2024/01/08 00:26:24;;;;;;;;;;;0.20;99.90;;;;;;5051458;28;20367;-70
2024/01/08 00:28:52;;;;;;;;;;;0.30;99.90;;;;;;5060860;28;19970;-69
2024/01/08 00:31:20;;;;;;;;;;;0.20;99.90;;;;;;5063974;28;19920;-70
2024/01/08 00:33:48;;;;;;;;;;;0.20;99.90;;;;;;5036828;28;19930;-69
2024/01/08 00:36:16;;;;;;;;;;;0.20;99.90;;;;;;5054687;28;20411;-69
2024/01/08 00:38:44;;;;;;;;;;;0.20;99.90;;;;;;5036966;28;19967;-69
2024/01/08 00:41:12;;;;;;;;;;;0.20;99.90;;;;;;5054009;28;19927;-69
2024/01/08 00:43:41;;;;;;;;;;;0.30;99.90;;;;;;5054453;28;20007;-70
2024/01/08 00:46:09;;;;;;;;;;;0.30;99.90;;;;;;5054942;28;20402;-69
2024/01/08 00:48:37;;;;;;;;;;;0.30;99.90;;;;;;5045418;28;19925;-70
2024/01/08 00:51:05;;;;;;;;;;;0.30;99.90;;;;;;5053841;28;19920;-69
2024/01/08 00:53:33;;;;;;;;;;;0.30;99.90;;;;;;5036537;28;19955;-69
2024/01/08 00:56:01;;;;;;;;;;;0.40;99.90;;;;;;5054547;28;19925;-70
2024/01/08 00:58:30;;;;;;;;;;;0.40;99.90;;;;;;5044537;28;19920;-71
2024/01/08 01:00:59;;;;;;;;;;;0.30;99.90;;;;;;5062034;28;19920;-71
2024/01/08 01:03:27;;;;;;;;;;;0.30;99.90;;;;;;5036318;28;19920;-70
2024/01/08 01:05:56;;;;;;;;;;;0.20;99.90;;;;;;5036367;28;19921;-70
2024/01/08 01:08:24;;;;;;;;;;;0.30;99.90;;;;;;5054581;28;19928;-70
2024/01/08 01:10:52;;;;;;;;;;;0.30;99.90;;;;;;5035498;28;19920;-71
2024/01/08 01:13:20;;;;;;;;;;;0.30;99.90;;;;;;5035902;28;20044;-70
2024/01/08 01:15:48;;;;;;;;;;;0.30;99.90;;;;;;5053904;28;19931;-71
2024/01/08 01:18:18;;;;;;;;;;;0.30;99.90;;;;;;5054283;28;19920;-70
2024/01/08 01:20:46;;;;;;;;;;;0.30;99.90;;;;;;5035507;28;19928;-70
2024/01/08 01:23:14;;;;;;;;;;;0.20;99.90;;;;;;5036095;28;20402;-70
2024/01/08 01:25:42;;;;;;;;;;;0.30;99.90;;;;;;5053632;28;19940;-72
2024/01/08 01:28:10;;;;;;;;;;;0.30;99.90;;;;;;5062604;28;19921;-71
2024/01/08 01:30:38;;;;;;;;;;;0.30;99.90;;;;;;5069738;28;20388;-71
2024/01/08 01:33:05;;;;;;;;;;;0.30;99.90;;;;;;5053874;28;19926;-70
2024/01/08 01:35:35;;;;;;;;;;;0.30;99.90;;;;;;5053523;28;19922;-70
2024/01/08 01:38:03;;;;;;;;;;;0.30;99.90;;;;;;5053033;28;19921;-71
2024/01/08 01:40:31;;;;;;;;;;;0.30;99.90;;;;;;5035193;28;19917;-71
2024/01/08 01:42:59;;;;;;;;;;;0.30;99.90;;;;;;5035762;28;20032;-72
2024/01/08 01:45:27;;;;;;;;;;;0.30;99.90;;;;;;5053331;28;19921;-70
2024/01/08 01:47:55;;;;;;;;;;;0.30;99.90;;;;;;5058063;28;20349;-71
2024/01/08 01:50:24;;;;;;;;;;;0.30;99.90;;;;;;5052846;28;19925;-71
2024/01/08 01:52:54;;;;;;;;;;;0.30;99.90;;;;;;5053359;28;19925;-71
2024/01/08 01:55:22;;;;;;;;;;;0.30;99.90;;;;;;5061704;28;19942;-71
2024/01/08 01:57:50;;;;;;;;;;;0.30;99.90;;;;;;5035688;28;20417;-71
2024/01/08 02:00:18;;;;;;;;;;;0.30;99.90;;;;;;5052398;28;20011;-73
2024/01/08 02:02:46;;;;;;;;;;;0.20;99.90;;;;;;5053186;28;19931;-73
2024/01/08 02:05:13;;;;;;;;;;;0.20;99.90;;;;;;5053015;28;19927;-71
2024/01/08 02:07:42;;;;;;;;;;;0.20;99.90;;;;;;5035231;28;19921;-71
2024/01/08 02:10:11;;;;;;;;;;;0.20;99.90;;;;;;5052550;28;19924;-71
2024/01/08 02:12:39;;;;;;;;;;;0.10;99.90;;;;;;5052907;28;20400;-70
2024/01/08 02:15:07;;;;;;;;;;;0.20;99.90;;;;;;5034567;28;20300;-70
2024/01/08 02:17:35;;;;;;;;;;;0.20;99.90;;;;;;5034993;28;19928;-70
2024/01/08 02:20:03;;;;;;;;;;;0.20;99.90;;;;;;5052268;28;19990;-71
2024/01/08 02:22:31;;;;;;;;;;;0.10;99.90;;;;;;5052826;28;19920;-71
2024/01/08 02:25:01;;;;;;;;;;;0.10;99.90;;;;;;5034975;28;20023;-71
2024/01/08 02:27:29;;;;;;;;;;;0.10;99.90;;;;;;5035980;28;19956;-72
2024/01/08 02:29:56;;;;;;;;;;;0.10;99.90;;;;;;5069584;28;19924;-70
2024/01/08 02:32:24;;;;;;;;;;;0.10;99.90;;;;;;5060322;28;19924;-71
2024/01/08 02:34:53;;;;;;;;;;;0.10;99.90;;;;;;5052708;28;19920;-71
2024/01/08 02:37:21;;;;;;;;;;;0.10;99.90;;;;;;5034613;28;19924;-71
2024/01/08 02:39:49;;;;;;;;;;;0.10;99.90;;;;;;5060142;28;19921;-72
2024/01/08 02:42:18;;;;;;;;;;;0.10;99.90;;;;;;5053298;28;20015;-71
2024/01/08 02:44:46;;;;;;;;;;;0.00;99.90;;;;;;5051490;28;19928;-71
2024/01/08 02:47:14;;;;;;;;;;;0.00;99.90;;;;;;5057478;28;19974;-71
2024/01/08 02:49:42;;;;;;;;;;;0.00;99.90;;;;;;5051007;28;20022;-72
2024/01/08 02:52:10;;;;;;;;;;;0.10;99.90;;;;;;5034335;28;20015;-71
2024/01/08 02:54:38;;;;;;;;;;;0.00;99.90;;;;;;5056695;28;20345;-72
2024/01/08 02:57:06;;;;;;;;;;;0.10;99.90;;;;;;5052073;28;19920;-70
2024/01/08 02:59:35;;;;;;;;;;;0.10;99.90;;;;;;5051845;28;20023;-70
2024/01/08 03:02:04;;;;;;;;;;;0.10;99.90;;;;;;5039932;28;19927;-69
2024/01/08 03:04:31;;;;;;;;;;;0.10;99.90;;;;;;5051963;28;20335;-70
2024/01/08 03:07:01;;;;;;;;;;;0.20;99.90;;;;;;5034388;28;20019;-71
2024/01/08 03:09:29;;;;;;;;;;;0.20;99.90;;;;;;5052560;28;20008;-70
2024/01/08 03:11:57;;;;;;;;;;;0.20;99.90;;;;;;5056054;28;20007;-71
2024/01/08 03:14:27;;;;;;;;;;;0.10;99.90;;;;;;5051959;28;20012;-70
2024/01/08 03:16:56;;;;;;;;;;;0.00;99.90;;;;;;5033769;28;19924;-70
2024/01/08 03:19:24;;;;;;;;;;;0.00;99.90;;;;;;5052069;28;19947;-69
2024/01/08 03:21:52;;;;;;;;;;;0.00;99.90;;;;;;5051264;28;20384;-70
2024/01/08 03:24:20;;;;;;;;;;;0.00;99.90;;;;;;5059160;28;19946;-71
2024/01/08 03:26:48;;;;;;;;;;;0.00;99.90;;;;;;5052189;28;20303;-72
2024/01/08 03:29:16;;;;;;;;;;;0.00;99.90;;;;;;5069899;28;19970;-73
2024/01/08 03:31:44;;;;;;;;;;;0.00;99.90;;;;;;5042178;28;19921;-75
2024/01/08 03:34:14;;;;;;;;;;;-0.10;99.90;;;;;;5051693;28;20449;-74
2024/01/08 03:36:44;;;;;;;;;;;-0.10;99.90;;;;;;5051526;28;19920;-72
2024/01/08 03:39:13;;;;;;;;;;;-0.10;99.90;;;;;;5057811;28;20000;-72
2024/01/08 03:41:41;;;;;;;;;;;0.00;99.90;;;;;;5052644;28;19971;-74
2024/01/08 03:44:09;;;;;;;;;;;0.00;99.90;;;;;;5052795;28;19921;-74
2024/01/08 03:46:38;;;;;;;;;;;-0.10;99.90;;;;;;5057098;28;19982;-75
2024/01/08 03:49:06;;;;;;;;;;;-0.10;99.90;;;;;;5051654;28;19927;-72
2024/01/08 03:51:36;;;;;;;;;;;-0.10;99.90;;;;;;5032729;28;19943;-73
2024/01/08 03:54:04;;;;;;;;;;;0.00;99.90;;;;;;5051178;28;19920;-72
2024/01/08 03:56:32;;;;;;;;;;;-0.10;99.90;;;;;;5033399;28;19958;-72
2024/01/08 03:59:00;;;;;;;;;;;-0.10;99.90;;;;;;5059908;28;19921;-72
2024/01/08 04:01:28;;;;;;;;;;;-0.10;99.90;;;;;;5058651;28;19952;-72
2024/01/08 04:03:55;;;;;;;;;;;0.00;99.90;;;;;;5033576;28;19971;-73
2024/01/08 04:06:23;;;;;;;;;;;0.00;99.90;;;;;;5051118;28;19927;-71
2024/01/08 04:08:52;;;;;;;;;;;0.00;99.90;;;;;;5051306;28;19929;-71
2024/01/08 04:11:20;;;;;;;;;;;0.00;99.90;;;;;;5050899;28;20023;-72
2024/01/08 04:13:48;;;;;;;;;;;0.00;99.90;;;;;;5059362;28;19990;-70
2024/01/08 04:16:16;;;;;;;;;;;0.00;99.90;;;;;;5055688;28;19962;-70
2024/01/08 04:18:44;;;;;;;;;;;0.00;99.90;;;;;;5051058;28;20050;-70
2024/01/08 04:21:15;;;;;;;;;;;0.00;99.90;;;;;;5032769;28;19948;-70
2024/01/08 04:23:43;;;;;;;;;;;-0.10;99.90;;;;;;5033177;28;20015;-69
2024/01/08 04:26:16;;;;;;;;;;;-0.10;99.90;;;;;;5033234;28;19998;-70
2024/01/08 04:28:44;;;;;;;;;;;-0.10;99.90;;;;;;5034607;28;19960;-69
2024/01/08 04:31:17;;;;;;;;;;;-0.10;99.90;;;;;;5064662;28;20179;-70
2024/01/08 04:33:45;;;;;;;;;;;-0.10;99.90;;;;;;5034358;28;19960;-70
2024/01/08 04:36:13;;;;;;;;;;;-0.10;99.90;;;;;;5050934;28;19927;-69
2024/01/08 04:38:41;;;;;;;;;;;-0.10;99.90;;;;;;5032940;28;20411;-70
2024/01/08 04:41:09;;;;;;;;;;;-0.10;99.90;;;;;;5050669;28;19920;-70
2024/01/08 04:43:38;;;;;;;;;;;-0.10;99.90;;;;;;5050677;28;19920;-70
2024/01/08 04:46:08;;;;;;;;;;;-0.10;99.90;;;;;;5050995;28;19963;-71
2024/01/08 04:48:36;;;;;;;;;;;-0.10;99.90;;;;;;5051002;28;19959;-71
2024/01/08 04:51:05;;;;;;;;;;;-0.20;99.90;;;;;;5055543;28;19927;-71
2024/01/08 04:53:33;;;;;;;;;;;-0.20;99.90;;;;;;5033385;28;19983;-74
2024/01/08 04:56:01;;;;;;;;;;;-0.10;99.90;;;;;;5050733;28;19925;-71
2024/01/08 04:58:29;;;;;;;;;;;-0.20;99.90;;;;;;5040390;28;19925;-70
2024/01/08 05:00:59;;;;;;;;;;;-0.20;99.90;;;;;;5066774;28;20311;-70
2024/01/08 05:03:27;;;;;;;;;;;-0.20;99.90;;;;;;5050942;28;19927;-70
2024/01/08 05:05:55;;;;;;;;;;;-0.20;99.90;;;;;;5033933;28;19952;-72
2024/01/08 05:08:23;;;;;;;;;;;-0.10;99.90;;;;;;5032765;28;20413;-70
2024/01/08 05:10:51;;;;;;;;;;;-0.10;99.90;;;;;;5050030;28;19920;-69
2024/01/08 05:13:19;;;;;;;;;;;-0.10;99.90;;;;;;5052223;28;19928;-70
2024/01/08 05:15:47;;;;;;;;;;;-0.10;99.90;;;;;;5054118;28;19963;-70
2024/01/08 05:18:16;;;;;;;;;;;-0.10;99.90;;;;;;5057290;28;20011;-70
2024/01/08 05:20:44;;;;;;;;;;;-0.10;99.90;;;;;;5035559;28;19928;-70
2024/01/08 05:23:12;;;;;;;;;;;-0.10;99.90;;;;;;5058150;28;19924;-72
2024/01/08 05:25:40;;;;;;;;;;;0.00;99.90;;;;;;5053937;28;20308;-70
2024/01/08 05:28:09;;;;;;;;;;;0.00;99.90;;;;;;5058188;28;19920;-71
2024/01/08 05:30:37;;;;;;;;;;;-0.10;99.90;;;;;;5054995;28;20387;-70
2024/01/08 05:33:05;;;;;;;;;;;-0.10;99.90;;;;;;5053879;28;20019;-70
2024/01/08 05:35:35;;;;;;;;;;;-0.20;99.90;;;;;;5053736;28;19927;-70
2024/01/08 05:38:03;;;;;;;;;;;-0.20;99.90;;;;;;5057250;28;19927;-70
2024/01/08 05:40:31;;;;;;;;;;;-0.20;99.90;;;;;;5053179;28;20007;-71
2024/01/08 05:42:59;;;;;;;;;;;-0.10;99.90;;;;;;5053766;28;19928;-69
2024/01/08 05:45:27;;;;;;;;;;;-0.20;99.90;;;;;;5053053;28;19925;-71
2024/01/08 05:47:55;;;;;;;;;;;-0.20;99.90;;;;;;5060737;28;19960;-71
2024/01/08 05:50:25;;;;;;;;;;;-0.10;99.90;;;;;;5052914;28;19925;-71
2024/01/08 05:52:55;;;;;;;;;;;-0.10;99.90;;;;;;5053457;28;19927;-70
2024/01/08 05:55:23;;;;;;;;;;;-0.10;99.90;;;;;;5060055;28;19932;-70
2024/01/08 05:57:51;;;;;;;;;;;-0.10;99.90;;;;;;5036502;28;19970;-70
2024/01/08 06:00:21;;;;;;;;;;;-0.10;99.90;;;;;;5066912;28;19921;-70
2024/01/08 06:02:49;;;;;;;;;;;-0.10;99.90;;;;;;5053077;28;19925;-70
2024/01/08 06:05:17;;;;;;;;;;;0.00;99.90;;;;;;5053327;28;19927;-70
2024/01/08 06:07:47;;;;;;;;;;;0.00;99.90;;;;;;5052976;28;20379;-71
2024/01/08 06:10:17;;;;;;;;;;;-0.10;99.90;;;;;;5052441;28;19927;-70
2024/01/08 06:12:45;;;;;;;;;;;-0.20;99.90;;;;;;5049844;28;19921;-72
2024/01/08 06:15:13;;;;;;;;;;;-0.10;99.90;;;;;;5034917;28;19929;-70
2024/01/08 06:17:41;;;;;;;;;;;-0.20;99.90;;;;;;5052695;28;20444;-71
2024/01/08 06:20:13;;;;;;;;;;;-0.20;99.90;;;;;;5052603;28;19924;-70
2024/01/08 06:22:41;;;;;;;;;;;-0.20;99.90;;;;;;5052790;28;19924;-73
2024/01/08 06:25:09;;;;;;;;;;;-0.20;99.90;;;;;;5052454;28;19956;-72
2024/01/08 06:27:39;;;;;;;;;;;-0.20;99.90;;;;;;5052046;28;19921;-70
2024/01/08 06:30:08;;;;;;;;;;;-0.20;99.90;;;;;;5071967;28;19920;-70
2024/01/08 06:32:36;;;;;;;;;;;-0.20;99.90;;;;;;5038899;28;19970;-71
2024/01/08 06:35:04;;;;;;;;;;;-0.20;99.90;;;;;;5034996;28;19927;-71
2024/01/08 06:37:32;;;;;;;;;;;-0.20;99.90;;;;;;5034809;28;19925;-70
2024/01/08 06:40:01;;;;;;;;;;;-0.20;99.90;;;;;;5034465;28;19927;-71
2024/01/08 06:42:30;;;;;;;;;;;-0.20;99.90;;;;;;5053078;28;19994;-71
2024/01/08 06:45:19;;;;;;;;;;;-0.20;99.90;;;;;;5056793;22;19965;-66
2024/01/08 06:47:47;;;;;;;;;;;-0.10;99.90;;;;;;5080066;28;20272;-67
2024/01/08 06:50:15;;;;;;;;;;;-0.20;99.90;;;;;;5063074;28;19951;-67
2024/01/08 06:52:43;;;;;;;;;;;-0.20;99.90;;;;;;5053873;28;19935;-67
2024/01/08 06:55:14;;;;;;;;;;;-0.20;99.90;;;;;;5063256;28;19925;-66
2024/01/08 06:57:42;;;;;;;;;;;-0.20;99.90;;;;;;5032892;28;20011;-66
2024/01/08 07:00:10;;;;;;;;;;;-0.20;99.90;;;;;;5049948;28;19963;-66
2024/01/08 07:02:40;;;;;;;;;;;-0.20;99.90;;;;;;5053495;28;19928;-68
2024/01/08 07:05:08;;;;;;;;;;;-0.10;99.90;;;;;;5051051;28;19928;-65
2024/01/08 07:07:37;;;;;;;;;;;0.30;99.90;;;;;;5050857;28;20362;-65
2024/01/08 07:10:05;;;;;;;;;;;-0.10;99.90;;;;;;5050302;28;19931;-65
2024/01/08 07:12:33;;;;;;;;;;;-0.20;99.90;;;;;;5050809;28;19920;-65
2024/01/08 07:15:01;;;;;;;;;;;-0.30;99.90;;;;;;5032749;28;20384;-65
2024/01/08 07:17:29;;;;;;;;;;;-0.40;99.90;;;;;;5048315;28;19935;-66
2024/01/08 07:20:00;;;;;;;;;;;-0.40;99.90;;;;;;5048195;28;20051;-69
2024/01/08 07:22:28;;;;;;;;;;;-0.50;99.90;;;;;;5038264;28;19924;-67
2024/01/08 07:24:56;;;;;;;;;;;-0.40;99.90;;;;;;5034718;28;19920;-67
2024/01/08 07:27:24;;;;;;;;;;;-0.40;99.90;;;;;;5050017;28;19924;-66
2024/01/08 07:29:53;;;;;;;;;;;-0.40;99.90;;;;;;5056737;28;19927;-66
2024/01/08 07:32:21;;;;;;;;;;;-0.50;99.90;;;;;;5050329;28;19925;-67
2024/01/08 07:34:49;;;;;;;;;;;-0.40;99.90;;;;;;5050634;28;19920;-65
2024/01/08 07:37:19;;;;;;;;;;;-0.40;99.90;;;;;;5031711;28;19931;-68
2024/01/08 07:39:47;;;;;;;;;;;-0.40;99.90;;;;;;5050289;28;20011;-64
2024/01/08 07:42:15;;;;;;;;;;;-0.40;99.90;;;;;;5049613;28;19921;-66
2024/01/08 07:44:42;;;;;;;;;;;-0.40;99.90;;;;;;5051743;28;19920;-66
2024/01/08 07:47:10;;;;;;;;;;;-0.40;99.90;;;;;;5034065;28;20334;-66
2024/01/08 07:49:39;;;;;;;;;;;-0.50;99.90;;;;;;5040530;28;20417;-66
2024/01/08 07:52:07;;;;;;;;;;;-0.40;99.90;;;;;;5049990;28;19920;-66
2024/01/08 07:54:36;;;;;;;;;;;-0.40;99.90;;;;;;5051004;28;19921;-66
2024/01/08 07:57:05;;;;;;;;;;;-0.40;99.90;;;;;;5047013;28;19924;-66
2024/01/08 07:59:38;;;;;;;;;;;-0.30;99.90;;;;;;5050276;28;20421;-66
2024/01/08 08:02:06;;;;;;;;;;;-0.40;99.90;;;;;;5049904;28;19925;-68
2024/01/08 08:04:34;;;;;;;;;;;-0.30;99.90;;;;;;5050658;28;20303;-67
2024/01/08 08:07:02;;;;;;;;;;;0.00;99.90;;;;;;5050965;28;20289;-67
2024/01/08 08:09:32;;;;;;;;;;;-0.10;99.90;;;;;;5053055;28;20344;-67
2024/01/08 08:12:01;;;;;;;;;;;-0.40;99.90;;;;;;5051454;28;19929;-64
2024/01/08 08:14:31;;;;;;;;;;;-0.50;99.90;;;;;;5047171;28;19921;-66
2024/01/08 08:16:58;;;;;;;;;;;-0.60;99.90;;;;;;5052043;28;20477;-64
2024/01/08 08:19:26;;;;;;;;;;;-0.60;99.90;;;;;;5054639;28;19966;-64
2024/01/08 08:21:56;;;;;;;;;;;-0.60;99.90;;;;;;5049215;28;19921;-66
2024/01/08 08:24:25;;;;;;;;;;;-0.60;99.90;;;;;;5059334;28;19925;-64
2024/01/08 08:27:18;;;;;;;;;;;-0.50;99.90;;;;;;5050523;28;20008;-64
2024/01/08 08:29:49;;;;;;;;;;;-0.30;99.90;;;;;;5052989;28;19925;-63
2024/01/08 08:32:17;;;;;;;;;;;0.00;99.90;;;;;;5054915;28;20330;-64
2024/01/08 08:34:45;;;;;;;;;;;0.10;99.90;;;;;;5048571;28;20441;-65
2024/01/08 08:37:15;;;;;;;;;;;0.20;99.90;;;;;;5048890;28;19936;-64
2024/01/08 08:39:42;;;;;;;;;;;0.30;99.90;;;;;;5047379;28;19928;-65
2024/01/08 08:42:11;;;;;;;;;;;0.30;99.90;;;;;;5039791;28;20400;-66
2024/01/08 08:44:42;;;;;;;;;;;0.40;99.90;;;;;;5039469;28;19924;-66
2024/01/08 08:47:12;;;;;;;;;;;0.50;99.90;;;;;;5037565;28;20353;-65
2024/01/08 08:49:39;;;;;;;;;;;0.50;99.90;;;;;;5043619;28;19928;-65
2024/01/08 08:52:07;;;;;;;;;;;0.60;99.90;;;;;;5041165;28;19929;-68
2024/01/08 08:54:36;;;;;;;;;;;0.70;99.90;;;;;;5042693;28;19986;-64
2024/01/08 08:57:28;;;;;;;;;;;0.80;99.90;;;;;;5042087;28;19929;-67
2024/01/08 08:59:58;;;;;;;;;;;0.80;99.90;;;;;;5041937;28;19936;-65
2024/01/08 09:02:26;;;;;;;;;;;0.80;99.90;;;;;;5040846;28;20446;-64
2024/01/08 09:04:54;;;;;;;;;;;0.70;99.90;;;;;;5026633;28;19921;-64
2024/01/08 09:07:24;;;;;;;;;;;0.80;99.90;;;;;;5042665;28;20388;-63
2024/01/08 09:09:53;;;;;;;;;;;0.90;99.90;;;;;;5041492;28;19931;-67
2024/01/08 09:12:23;;;;;;;;;;;0.90;99.90;;;;;;5040862;28;19921;-65
2024/01/08 09:14:50;;;;;;;;;;;1.10;99.90;;;;;;5042479;28;19932;-63
2024/01/08 09:17:20;;;;;;;;;;;1.10;99.90;;;;;;5042563;28;20790;-64
2024/01/08 09:19:49;;;;;;;;;;;1.00;99.90;;;;;;5041558;28;20006;-63
2024/01/08 09:22:20;;;;;;;;;;;0.80;99.90;;;;;;5040318;28;19920;-63
2024/01/08 09:24:47;;;;;;;;;;;0.80;99.90;;;;;;5041962;28;20549;-64
2024/01/08 09:27:15;;;;;;;;;;;1.00;99.90;;;;;;5041402;28;19978;-64
2024/01/08 09:29:43;;;;;;;;;;;1.20;99.90;;;;;;5042089;28;19929;-63
2024/01/08 09:32:11;;;;;;;;;;;1.30;99.90;;;;;;5039834;28;19928;-67
2024/01/08 09:34:40;;;;;;;;;;;1.40;99.90;;;;;;5042303;28;20445;-67
2024/01/08 09:37:07;;;;;;;;;;;1.50;99.90;;;;;;5041731;28;19932;-66
2024/01/08 09:39:36;;;;;;;;;;;1.40;99.90;;;;;;5041049;28;20338;-64
2024/01/08 09:42:04;;;;;;;;;;;1.10;99.90;;;;;;5038948;28;19972;-64
2024/01/08 09:44:32;;;;;;;;;;;1.10;99.90;;;;;;5041482;28;20396;-64
2024/01/08 09:47:03;;;;;;;;;;;1.10;99.90;;;;;;5041540;28;19929;-66
2024/01/08 09:49:32;;;;;;;;;;;1.00;99.90;;;;;;5041637;28;20425;-65
2024/01/08 09:52:03;;;;;;;;;;;1.10;99.90;;;;;;5039162;28;19932;-63
2024/01/08 09:54:34;;;;;;;;;;;1.30;99.90;;;;;;5041117;28;19932;-63
2024/01/08 09:57:03;;;;;;;;;;;1.30;99.90;;;;;;5041071;28;19936;-65
2024/01/08 09:59:32;;;;;;;;;;;1.50;99.90;;;;;;5040401;28;19929;-65
2024/01/08 10:02:00;;;;;;;;;;;1.40;99.90;;;;;;5037424;28;20092;-64
2024/01/08 10:04:28;;;;;;;;;;;1.20;99.90;;;;;;5040920;28;19939;-66
2024/01/08 10:07:07;;;;;;;;;;;1.10;99.90;;;;;;5041249;28;19932;-65
2024/01/08 10:09:36;;;;;;;;;;;1.10;99.90;;;;;;5040595;28;21159;-63
2024/01/08 10:12:05;;;;;;;;;;;1.20;99.90;;;;;;5037576;28;19929;-65
2024/01/08 10:14:33;;;;;;;;;;;1.20;99.90;;;;;;5041271;28;19925;-65
2024/01/08 10:17:01;;;;;;;;;;;1.20;99.90;;;;;;5040715;28;19935;-65
2024/01/08 10:19:30;;;;;;;;;;;1.30;99.90;;;;;;5040418;28;20322;-63
2024/01/08 10:22:08;;;;;;;;;;;1.20;99.90;;;;;;5036328;28;20571;-65
2024/01/08 10:24:35;;;;;;;;;;;1.20;99.90;;;;;;5040356;28;20425;-63
2024/01/08 10:27:03;;;;;;;;;;;1.10;99.90;;;;;;5040538;28;20017;-64
2024/01/08 10:29:32;;;;;;;;;;;1.10;99.90;;;;;;5040622;28;19975;-65
2024/01/08 10:32:00;;;;;;;;;;;1.00;99.90;;;;;;5036398;28;21081;-65
2024/01/08 10:34:28;;;;;;;;;;;0.70;99.90;;;;;;5040920;28;19982;-65
2024/01/08 10:36:56;;;;;;;;;;;0.70;99.90;;;;;;5040210;28;20020;-65
2024/01/08 10:39:26;;;;;;;;;;;0.80;99.90;;;;;;5040499;28;19986;-65
2024/01/08 10:42:10;;;;;;;;;;;0.90;99.90;;;;;;5037380;28;19929;-63
2024/01/08 10:44:38;;;;;;;;;;;1.10;99.90;;;;;;5040293;28;19921;-65
2024/01/08 10:47:07;;;;;;;;;;;1.20;99.90;;;;;;5039873;28;19932;-65
2024/01/08 10:49:36;;;;;;;;;;;1.30;99.90;;;;;;5039945;28;19929;-64
2024/01/08 10:52:09;;;;;;;;;;;1.30;99.90;;;;;;5034819;28;19929;-65
2024/01/08 10:54:40;;;;;;;;;;;1.30;99.90;;;;;;5039194;28;19928;-65
2024/01/08 10:57:11;;;;;;;;;;;1.20;99.90;;;;;;5040418;28;20399;-68
2024/01/08 10:59:40;;;;;;;;;;;0.90;99.90;;;;;;5039405;28;19931;-65
2024/01/08 11:02:08;;;;;;;;;;;0.80;99.90;;;;;;5035475;28;19928;-67
2024/01/08 11:04:36;;;;;;;;;;;0.80;99.90;;;;;;5039197;28;19981;-63
2024/01/08 11:07:05;;;;;;;;;;;0.80;99.90;;;;;;5039444;28;19928;-63
2024/01/08 11:09:33;;;;;;;;;;;0.80;99.90;;;;;;5038698;28;20292;-64
2024/01/08 11:12:05;;;;;;;;;;;1.00;99.90;;;;;;5037916;28;19929;-67
2024/01/08 11:14:33;;;;;;;;;;;0.90;99.90;;;;;;5039019;28;19933;-64
2024/01/08 11:17:01;;;;;;;;;;;1.10;99.90;;;;;;5039497;28;19940;-66
2024/01/08 11:19:29;;;;;;;;;;;1.00;99.90;;;;;;5039341;28;19929;-64
2024/01/08 11:22:10;;;;;;;;;;;1.00;99.90;;;;;;5038812;28;19929;-64
2024/01/08 11:24:38;;;;;;;;;;;1.00;99.90;;;;;;5039552;28;20425;-64
2024/01/08 11:27:07;;;;;;;;;;;1.10;99.90;;;;;;5039556;28;19931;-64
2024/01/08 11:29:34;;;;;;;;;;;1.20;99.90;;;;;;5038901;28;20637;-65
2024/01/08 11:32:20;;;;;;;;;;;1.20;99.90;;;;;;5038999;28;20459;-66
2024/01/08 11:34:57;;;;;;;;;;;1.40;99.90;;;;;;5038907;28;20495;-65
2024/01/08 11:37:35;;;;;;;;;;;1.20;99.90;;;;;;5039014;28;20690;-66
2024/01/08 11:40:05;;;;;;;;;;;1.20;99.90;;;;;;5038010;28;19925;-66
2024/01/08 11:42:36;;;;;;;;;;;1.30;99.90;;;;;;5039014;28;19950;-65
2024/01/08 11:45:04;;;;;;;;;;;1.20;99.90;;;;;;5039748;28;19936;-64
2024/01/08 11:47:32;;;;;;;;;;;1.20;99.90;;;;;;5039061;28;20860;-64
2024/01/08 11:50:00;;;;;;;;;;;1.30;99.90;;;;;;5038464;28;19960;-64
2024/01/08 11:52:29;;;;;;;;;;;1.20;99.90;;;;;;5038249;28;20376;-65
2024/01/08 11:54:57;;;;;;;;;;;1.20;99.70;;;;;;5038402;28;19929;-65
2024/01/08 11:57:25;;;;;;;;;;;1.30;99.20;;;;;;5038469;28;19925;-69
2024/01/08 11:59:54;;;;;;;;;;;1.20;99.30;;;;;;5038144;28;19925;-65
2024/01/08 12:02:24;;;;;;;;;;;1.20;99.60;;;;;;5037862;28;20482;-65
2024/01/08 12:04:53;;;;;;;;;;;1.30;99.70;;;;;;5039030;28;20402;-65
2024/01/08 12:25:26;;;;;;;;;;;1.00;98.90;;;;;;5051655;28;19929;-65
2024/01/08 12:27:59;;;;;;;;;;;0.90;98.60;;;;;;5048687;28;19928;-65
2024/01/08 12:30:27;;;;;;;;;;;0.70;98.30;;;;;;5052177;28;19932;-66
2024/01/08 12:32:57;;;;;;;;;;;0.40;98.60;;;;;;5051298;28;19920;-66
2024/01/08 12:35:25;;;;;;;;;;;0.20;99.00;;;;;;5025569;28;19928;-66
2024/01/08 12:37:54;;;;;;;;;;;0.10;99.50;;;;;;5042292;28;20335;-64
2024/01/08 12:40:22;;;;;;;;;;;0.00;99.30;;;;;;5051714;28;20015;-65
2024/01/08 12:42:52;;;;;;;;;;;-0.10;99.40;;;;;;5054990;28;20470;-66
2024/01/08 12:45:20;;;;;;;;;;;-0.30;99.40;;;;;;5056908;28;19986;-64
2024/01/08 12:47:48;;;;;;;;;;;-0.40;99.40;;;;;;5055832;28;19944;-65
2024/01/08 12:50:17;;;;;;;;;;;-0.40;99.80;;;;;;5057185;28;19929;-66
2024/01/08 12:52:44;;;;;;;;;;;-0.50;99.90;;;;;;5057275;28;19920;-65
2024/01/08 12:55:12;;;;;;;;;;;-0.50;99.90;;;;;;5052037;28;19933;-65
2024/01/08 12:57:41;;;;;;;;;;;-0.60;99.90;;;;;;5048964;28;19928;-66
2024/01/08 13:00:13;;;;;;;;;;;-0.60;99.90;;;;;;5051115;28;19927;-65
2024/01/08 13:02:41;;;;;;;;;;;-0.70;99.90;;;;;;5051796;28;19929;-65
2024/01/08 13:05:09;;;;;;;;;;;-0.70;99.90;;;;;;5057722;28;19928;-66
2024/01/08 13:07:41;;;;;;;;;;;-0.80;99.90;;;;;;5055558;28;20041;-65
2024/01/08 13:10:09;;;;;;;;;;;-0.80;99.90;;;;;;5054354;28;19920;-65
2024/01/08 13:12:38;;;;;;;;;;;-0.80;99.90;;;;;;5050715;28;20674;-64
2024/01/08 13:15:06;;;;;;;;;;;-0.80;99.90;;;;;;5052548;28;19924;-65
2024/01/08 13:17:36;;;;;;;;;;;-0.70;99.90;;;;;;5049676;28;20011;-64
2024/01/08 13:20:04;;;;;;;;;;;-0.80;99.90;;;;;;5056195;28;19998;-65
2024/01/08 13:22:49;;;;;;;;;;;-0.80;99.90;;;;;;5057457;28;20011;-64
2024/01/08 13:25:16;;;;;;;;;;;-0.80;99.90;;;;;;5057242;28;20288;-65
2024/01/08 13:27:45;;;;;;;;;;;-0.90;99.90;;;;;;5056381;28;19959;-67
2024/01/08 13:30:13;;;;;;;;;;;-0.90;99.90;;;;;;5048259;28;19932;-65
2024/01/08 13:32:42;;;;;;;;;;;-0.90;99.90;;;;;;5046498;28;20738;-65
2024/01/08 13:35:10;;;;;;;;;;;-1.00;99.90;;;;;;5051814;28;20996;-65
2024/01/08 13:37:40;;;;;;;;;;;-1.00;99.90;;;;;;5056744;28;19928;-65
2024/01/08 13:40:08;;;;;;;;;;;-1.10;99.90;;;;;;5051726;28;20850;-65
2024/01/08 13:42:36;;;;;;;;;;;-1.10;99.90;;;;;;5053154;28;19955;-65
2024/01/08 13:45:05;;;;;;;;;;;-1.10;99.90;;;;;;5053921;28;20837;-65
2024/01/08 13:47:34;;;;;;;;;;;-1.20;99.90;;;;;;5048989;28;21441;-66
2024/01/08 13:50:05;;;;;;;;;;;-1.20;99.90;;;;;;5052726;28;19936;-66
2024/01/08 13:52:34;;;;;;;;;;;-1.30;99.90;;;;;;5053558;28;19929;-66
2024/01/08 13:55:01;;;;;;;;;;;-1.20;99.90;;;;;;5053472;28;20295;-65
2024/01/08 13:57:29;;;;;;;;;;;-1.30;99.90;;;;;;5048917;28;20704;-65
2024/01/08 13:59:57;;;;;;;;;;;-1.40;99.90;;;;;;5052098;28;19921;-65
2024/01/08 14:02:27;;;;;;;;;;;-1.50;99.90;;;;;;5056069;28;19928;-66
2024/01/08 14:04:55;;;;;;;;;;;-1.50;99.90;;;;;;5049337;28;19924;-66
2024/01/08 14:07:24;;;;;;;;;;;-1.60;99.90;;;;;;5047335;28;19932;-66
2024/01/08 14:09:52;;;;;;;;;;;-1.60;99.90;;;;;;5048077;28;19928;-66
2024/01/08 14:12:20;;;;;;;;;;;-1.60;99.90;;;;;;5049451;28;20553;-66
2024/01/08 14:14:47;;;;;;;;;;;-1.70;99.90;;;;;;5053680;28;19928;-66
2024/01/08 14:17:15;;;;;;;;;;;-1.80;99.90;;;;;;5055198;28;19928;-65
2024/01/08 14:19:43;;;;;;;;;;;-1.80;99.90;;;;;;5054974;28;20135;-66
2024/01/08 14:22:11;;;;;;;;;;;-1.90;99.90;;;;;;5048998;28;19936;-66
2024/01/08 14:24:40;;;;;;;;;;;-1.90;99.90;;;;;;5054204;28;19928;-65
2024/01/08 14:27:08;;;;;;;;;;;-2.00;99.90;;;;;;5054004;28;19936;-64
2024/01/08 14:29:35;;;;;;;;;;;-2.00;99.90;;;;;;5048056;28;20375;-65
2024/01/08 14:32:04;;;;;;;;;;;-2.00;99.90;;;;;;5046061;28;20265;-65
2024/01/08 14:34:32;;;;;;;;;;;-2.10;99.90;;;;;;5050122;28;19968;-67
2024/01/08 14:36:59;;;;;;;;;;;-2.10;99.90;;;;;;5047738;28;19928;-66
2024/01/08 14:39:28;;;;;;;;;;;-2.20;99.90;;;;;;5052340;28;19920;-66
2024/01/08 14:41:57;;;;;;;;;;;-2.20;99.90;;;;;;5049939;28;19916;-67
2024/01/08 14:44:25;;;;;;;;;;;-2.20;99.90;;;;;;5049291;28;20187;-66
2024/01/08 14:46:53;;;;;;;;;;;-2.20;99.90;;;;;;5050132;28;19964;-65
2024/01/08 14:49:21;;;;;;;;;;;-2.30;99.90;;;;;;5053050;28;19929;-65
2024/01/08 14:51:49;;;;;;;;;;;-2.40;99.90;;;;;;5049591;28;19928;-66